sensor_id;sensor_type;location;lat;lon;timestamp;temperature;humidity
31379;DHT22;61664;48.112;11.662;2022-10-30T00:01:04;15.70;61.50
31379;DHT22;61664;48.112;11.662;2022-10-30T00:03:31;15.70;61.50
31379;DHT22;61664;48.112;11.662;2022-10-30T00:05:58;15.70;61.50
31379;DHT22;61664;48.112;11.662;2022-10-30T00:08:25;15.70;61.40
31379;DHT22;61664;48.112;11.662;2022-10-30T00:10:52;15.70;61.40
31379;DHT22;61664;48.112;11.662;2022-10-30T00:13:20;15.70;61.30
31379;DHT22;61664;48.112;11.662;2022-10-30T00:15:52;15.70;61.40
31379;DHT22;61664;48.112;11.662;2022-10-30T00:18:20;15.80;61.20
31379;DHT22;61664;48.112;11.662;2022-10-30T00:20:47;15.80;61.30
31379;DHT22;61664;48.112;11.662;2022-10-30T00:23:15;15.70;61.20
31379;DHT22;61664;48.112;11.662;2022-10-30T00:25:42;15.80;61.30
31379;DHT22;61664;48.112;11.662;2022-10-30T00:28:09;15.80;61.20
31379;DHT22;61664;48.112;11.662;2022-10-30T00:30:36;15.80;61.20
31379;DHT22;61664;48.112;11.662;2022-10-30T00:33:04;15.80;61.10
31379;DHT22;61664;48.112;11.662;2022-10-30T00:35:31;15.80;61.00
31379;DHT22;61664;48.112;11.662;2022-10-30T00:37:59;15.80;61.00
31379;DHT22;61664;48.112;11.662;2022-10-30T00:40:27;15.90;61.00
31379;DHT22;61664;48.112;11.662;2022-10-30T00:42:55;15.90;60.90
31379;DHT22;61664;48.112;11.662;2022-10-30T00:45:22;15.90;60.90
31379;DHT22;61664;48.112;11.662;2022-10-30T00:47:52;15.90;60.80
31379;DHT22;61664;48.112;11.662;2022-10-30T00:50:27;16.00;60.70
31379;DHT22;61664;48.112;11.662;2022-10-30T00:53:13;15.90;60.50
31379;DHT22;61664;48.112;11.662;2022-10-30T00:55:48;15.90;60.00
31379;DHT22;61664;48.112;11.662;2022-10-30T00:58:17;16.00;60.70
31379;DHT22;61664;48.112;11.662;2022-10-30T01:00:51;16.00;60.80
31379;DHT22;61664;48.112;11.662;2022-10-30T01:03:22;16.00;60.70
31379;DHT22;61664;48.112;11.662;2022-10-30T01:05:56;16.00;60.70
31379;DHT22;61664;48.112;11.662;2022-10-30T01:08:28;15.90;60.60
31379;DHT22;61664;48.112;11.662;2022-10-30T01:10:57;15.90;60.60
31379;DHT22;61664;48.112;11.662;2022-10-30T01:13:28;15.80;60.50
31379;DHT22;61664;48.112;11.662;2022-10-30T01:18:49;15.70;60.60
31379;DHT22;61664;48.112;11.662;2022-10-30T01:22:13;15.70;60.60
31379;DHT22;61664;48.112;11.662;2022-10-30T01:24:51;15.60;60.70
31379;DHT22;61664;48.112;11.662;2022-10-30T01:33:59;15.40;61.10
31379;DHT22;61664;48.112;11.662;2022-10-30T01:39:34;15.30;61.40
31379;DHT22;61664;48.112;11.662;2022-10-30T01:54:02;15.00;61.70
31379;DHT22;61664;48.112;11.662;2022-10-30T01:59:57;14.90;62.00
31379;DHT22;61664;48.112;11.662;2022-10-30T02:02:27;14.90;62.10
31379;DHT22;61664;48.112;11.662;2022-10-30T02:04:55;14.80;62.00
31379;DHT22;61664;48.112;11.662;2022-10-30T02:07:22;14.80;62.00
31379;DHT22;61664;48.112;11.662;2022-10-30T02:09:53;14.70;62.20
31379;DHT22;61664;48.112;11.662;2022-10-30T02:12:21;14.70;62.40
31379;DHT22;61664;48.112;11.662;2022-10-30T02:14:54;14.70;62.30
31379;DHT22;61664;48.112;11.662;2022-10-30T02:17:24;14.60;62.50
31379;DHT22;61664;48.112;11.662;2022-10-30T02:19:52;14.60;62.50
31379;DHT22;61664;48.112;11.662;2022-10-30T02:22:19;14.60;62.50
31379;DHT22;61664;48.112;11.662;2022-10-30T02:24:46;14.50;62.60
31379;DHT22;61664;48.112;11.662;2022-10-30T02:27:13;14.50;62.70
31379;DHT22;61664;48.112;11.662;2022-10-30T02:29:40;14.50;62.70
31379;DHT22;61664;48.112;11.662;2022-10-30T02:32:07;14.40;62.70
31379;DHT22;61664;48.112;11.662;2022-10-30T02:34:34;14.40;62.80
31379;DHT22;61664;48.112;11.662;2022-10-30T02:37:02;14.30;62.80
31379;DHT22;61664;48.112;11.662;2022-10-30T02:39:29;14.40;62.90
31379;DHT22;61664;48.112;11.662;2022-10-30T02:41:59;14.30;63.00
31379;DHT22;61664;48.112;11.662;2022-10-30T02:44:27;14.30;63.00
31379;DHT22;61664;48.112;11.662;2022-10-30T02:46:54;14.20;63.00
31379;DHT22;61664;48.112;11.662;2022-10-30T02:49:21;14.20;63.10
31379;DHT22;61664;48.112;11.662;2022-10-30T02:52:00;14.20;63.10
31379;DHT22;61664;48.112;11.662;2022-10-30T02:54:27;14.20;63.50
31379;DHT22;61664;48.112;11.662;2022-10-30T02:56:54;14.20;63.20
31379;DHT22;61664;48.112;11.662;2022-10-30T02:59:20;14.10;63.20
31379;DHT22;61664;48.112;11.662;2022-10-30T03:01:47;14.10;63.20
31379;DHT22;61664;48.112;11.662;2022-10-30T03:04:14;14.10;63.30
31379;DHT22;61664;48.112;11.662;2022-10-30T03:06:41;14.10;63.30
31379;DHT22;61664;48.112;11.662;2022-10-30T03:09:08;14.00;63.30
31379;DHT22;61664;48.112;11.662;2022-10-30T03:11:35;14.00;63.40
31379;DHT22;61664;48.112;11.662;2022-10-30T03:14:02;14.00;63.40
31379;DHT22;61664;48.112;11.662;2022-10-30T03:16:28;13.90;63.40
31379;DHT22;61664;48.112;11.662;2022-10-30T03:18:56;14.00;63.50
31379;DHT22;61664;48.112;11.662;2022-10-30T03:21:25;13.90;63.60
31379;DHT22;61664;48.112;11.662;2022-10-30T03:23:53;13.80;63.60
31379;DHT22;61664;48.112;11.662;2022-10-30T03:26:21;13.80;63.70
31379;DHT22;61664;48.112;11.662;2022-10-30T03:28:48;13.80;63.80
31379;DHT22;61664;48.112;11.662;2022-10-30T03:31:17;13.70;63.80
31379;DHT22;61664;48.112;11.662;2022-10-30T03:33:45;13.70;63.90
31379;DHT22;61664;48.112;11.662;2022-10-30T03:36:13;13.70;63.90
31379;DHT22;61664;48.112;11.662;2022-10-30T03:38:41;13.80;64.10
31379;DHT22;61664;48.112;11.662;2022-10-30T03:41:08;13.70;64.00
31379;DHT22;61664;48.112;11.662;2022-10-30T03:43:35;13.70;64.10
31379;DHT22;61664;48.112;11.662;2022-10-30T03:46:02;13.60;64.10
31379;DHT22;61664;48.112;11.662;2022-10-30T03:48:30;13.60;64.10
31379;DHT22;61664;48.112;11.662;2022-10-30T03:50:58;13.60;64.10
31379;DHT22;61664;48.112;11.662;2022-10-30T03:53:28;13.50;64.20
31379;DHT22;61664;48.112;11.662;2022-10-30T03:56:00;13.50;64.30
31379;DHT22;61664;48.112;11.662;2022-10-30T03:58:29;13.50;64.60
31379;DHT22;61664;48.112;11.662;2022-10-30T04:01:04;13.50;64.40
31379;DHT22;61664;48.112;11.662;2022-10-30T04:03:32;13.40;64.80
31379;DHT22;61664;48.112;11.662;2022-10-30T04:06:00;13.50;64.60
31379;DHT22;61664;48.112;11.662;2022-10-30T04:08:27;13.40;64.60
31379;DHT22;61664;48.112;11.662;2022-10-30T04:10:54;13.40;65.00
31379;DHT22;61664;48.112;11.662;2022-10-30T04:13:20;13.40;64.90
31379;DHT22;61664;48.112;11.662;2022-10-30T04:15:48;13.40;65.00
31379;DHT22;61664;48.112;11.662;2022-10-30T04:18:24;13.40;65.10
31379;DHT22;61664;48.112;11.662;2022-10-30T04:20:51;13.40;65.00
31379;DHT22;61664;48.112;11.662;2022-10-30T04:23:19;13.50;65.10
31379;DHT22;61664;48.112;11.662;2022-10-30T04:25:47;13.50;65.10
31379;DHT22;61664;48.112;11.662;2022-10-30T04:28:15;13.50;65.10
31379;DHT22;61664;48.112;11.662;2022-10-30T04:30:42;13.50;65.10
31379;DHT22;61664;48.112;11.662;2022-10-30T04:33:12;13.50;65.00
31379;DHT22;61664;48.112;11.662;2022-10-30T04:35:40;13.50;65.00
31379;DHT22;61664;48.112;11.662;2022-10-30T04:38:12;13.50;65.00
31379;DHT22;61664;48.112;11.662;2022-10-30T04:40:41;13.50;65.00
31379;DHT22;61664;48.112;11.662;2022-10-30T04:43:10;13.50;65.00
31379;DHT22;61664;48.112;11.662;2022-10-30T04:45:38;13.50;64.90
31379;DHT22;61664;48.112;11.662;2022-10-30T04:48:09;13.50;64.90
31379;DHT22;61664;48.112;11.662;2022-10-30T04:50:38;13.50;65.00
31379;DHT22;61664;48.112;11.662;2022-10-30T04:53:07;13.50;65.00
31379;DHT22;61664;48.112;11.662;2022-10-30T04:55:44;13.40;65.00
31379;DHT22;61664;48.112;11.662;2022-10-30T04:58:12;13.40;65.00
31379;DHT22;61664;48.112;11.662;2022-10-30T05:00:39;13.50;65.10
31379;DHT22;61664;48.112;11.662;2022-10-30T05:03:07;13.40;65.20
31379;DHT22;61664;48.112;11.662;2022-10-30T05:05:37;13.40;65.20
31379;DHT22;61664;48.112;11.662;2022-10-30T05:08:04;13.40;65.00
31379;DHT22;61664;48.112;11.662;2022-10-30T05:10:31;13.40;65.00
31379;DHT22;61664;48.112;11.662;2022-10-30T05:12:58;13.40;65.10
31379;DHT22;61664;48.112;11.662;2022-10-30T05:15:25;13.40;65.20
31379;DHT22;61664;48.112;11.662;2022-10-30T05:17:52;13.40;65.30
31379;DHT22;61664;48.112;11.662;2022-10-30T05:20:19;13.40;65.40
31379;DHT22;61664;48.112;11.662;2022-10-30T05:22:54;13.30;65.30
31379;DHT22;61664;48.112;11.662;2022-10-30T05:25:23;13.30;65.60
31379;DHT22;61664;48.112;11.662;2022-10-30T05:27:55;13.40;65.40
31379;DHT22;61664;48.112;11.662;2022-10-30T05:30:28;13.30;65.40
31379;DHT22;61664;48.112;11.662;2022-10-30T05:33:03;13.30;65.40
31379;DHT22;61664;48.112;11.662;2022-10-30T05:35:32;13.30;65.60
31379;DHT22;61664;48.112;11.662;2022-10-30T05:38:02;13.30;65.40
31379;DHT22;61664;48.112;11.662;2022-10-30T05:40:30;13.30;65.50
31379;DHT22;61664;48.112;11.662;2022-10-30T05:42:58;13.30;65.50
31379;DHT22;61664;48.112;11.662;2022-10-30T05:45:26;13.30;65.50
31379;DHT22;61664;48.112;11.662;2022-10-30T05:48:00;13.30;65.50
31379;DHT22;61664;48.112;11.662;2022-10-30T05:50:30;13.30;65.70
31379;DHT22;61664;48.112;11.662;2022-10-30T05:52:58;13.30;65.50
31379;DHT22;61664;48.112;11.662;2022-10-30T05:55:27;13.30;65.60
31379;DHT22;61664;48.112;11.662;2022-10-30T06:00:34;13.30;65.60
31379;DHT22;61664;48.112;11.662;2022-10-30T06:03:06;13.30;65.60
31379;DHT22;61664;48.112;11.662;2022-10-30T06:05:36;13.30;65.60
31379;DHT22;61664;48.112;11.662;2022-10-30T06:08:05;13.30;65.60
31379;DHT22;61664;48.112;11.662;2022-10-30T06:10:33;13.30;65.60
31379;DHT22;61664;48.112;11.662;2022-10-30T06:13:04;13.30;65.60
31379;DHT22;61664;48.112;11.662;2022-10-30T06:15:32;13.30;65.70
31379;DHT22;61664;48.112;11.662;2022-10-30T06:17:59;13.30;65.60
31379;DHT22;61664;48.112;11.662;2022-10-30T06:20:28;13.40;65.70
31379;DHT22;61664;48.112;11.662;2022-10-30T06:23:03;13.40;65.70
31379;DHT22;61664;48.112;11.662;2022-10-30T06:25:33;13.40;65.80
31379;DHT22;61664;48.112;11.662;2022-10-30T06:28:07;13.40;65.70
31379;DHT22;61664;48.112;11.662;2022-10-30T06:30:36;13.50;65.80
31379;DHT22;61664;48.112;11.662;2022-10-30T06:33:04;13.50;65.80
31379;DHT22;61664;48.112;11.662;2022-10-30T06:35:31;13.50;65.90
31379;DHT22;61664;48.112;11.662;2022-10-30T06:37:58;13.50;65.90
31379;DHT22;61664;48.112;11.662;2022-10-30T06:40:28;13.60;66.00
31379;DHT22;61664;48.112;11.662;2022-10-30T06:42:56;13.60;66.00
31379;DHT22;61664;48.112;11.662;2022-10-30T06:45:24;13.70;66.00
31379;DHT22;61664;48.112;11.662;2022-10-30T06:47:51;13.90;66.00
31379;DHT22;61664;48.112;11.662;2022-10-30T06:50:20;13.90;65.90
31379;DHT22;61664;48.112;11.662;2022-10-30T06:52:47;14.00;65.90
31379;DHT22;61664;48.112;11.662;2022-10-30T06:55:15;14.00;65.80
31379;DHT22;61664;48.112;11.662;2022-10-30T06:57:42;14.10;65.80
31379;DHT22;61664;48.112;11.662;2022-10-30T07:00:10;14.20;65.80
31379;DHT22;61664;48.112;11.662;2022-10-30T07:02:38;14.20;65.70
31379;DHT22;61664;48.112;11.662;2022-10-30T07:05:26;14.40;65.70
31379;DHT22;61664;48.112;11.662;2022-10-30T07:07:55;14.40;65.70
31379;DHT22;61664;48.112;11.662;2022-10-30T07:10:27;14.60;65.60
31379;DHT22;61664;48.112;11.662;2022-10-30T07:12:55;14.60;65.60
31379;DHT22;61664;48.112;11.662;2022-10-30T07:15:25;14.70;65.50
31379;DHT22;61664;48.112;11.662;2022-10-30T07:18:00;14.90;65.50
31379;DHT22;61664;48.112;11.662;2022-10-30T07:20:31;15.00;65.30
31379;DHT22;61664;48.112;11.662;2022-10-30T07:23:00;15.10;65.40
31379;DHT22;61664;48.112;11.662;2022-10-30T07:25:27;15.30;65.40
31379;DHT22;61664;48.112;11.662;2022-10-30T07:27:55;15.40;65.30
31379;DHT22;61664;48.112;11.662;2022-10-30T07:30:25;15.50;65.10
31379;DHT22;61664;48.112;11.662;2022-10-30T07:32:59;15.70;65.00
31379;DHT22;61664;48.112;11.662;2022-10-30T07:35:28;15.80;64.80
31379;DHT22;61664;48.112;11.662;2022-10-30T07:38:01;16.00;64.20
31379;DHT22;61664;48.112;11.662;2022-10-30T07:40:30;16.20;64.30
31379;DHT22;61664;48.112;11.662;2022-10-30T07:42:59;16.30;64.80
31379;DHT22;61664;48.112;11.662;2022-10-30T07:45:28;16.60;64.60
31379;DHT22;61664;48.112;11.662;2022-10-30T07:47:55;16.80;64.80
31379;DHT22;61664;48.112;11.662;2022-10-30T07:50:23;17.10;64.90
31379;DHT22;61664;48.112;11.662;2022-10-30T07:52:50;17.40;64.90
31379;DHT22;61664;48.112;11.662;2022-10-30T07:55:17;17.70;64.60
31379;DHT22;61664;48.112;11.662;2022-10-30T07:57:43;18.00;64.30
31379;DHT22;61664;48.112;11.662;2022-10-30T08:00:12;18.40;64.10
31379;DHT22;61664;48.112;11.662;2022-10-30T08:02:40;18.90;63.60
31379;DHT22;61664;48.112;11.662;2022-10-30T08:05:08;19.30;63.50
31379;DHT22;61664;48.112;11.662;2022-10-30T08:07:37;19.70;62.80
31379;DHT22;61664;48.112;11.662;2022-10-30T08:10:06;20.20;61.80
31379;DHT22;61664;48.112;11.662;2022-10-30T08:12:34;20.60;60.90
31379;DHT22;61664;48.112;11.662;2022-10-30T08:15:01;21.00;59.90
31379;DHT22;61664;48.112;11.662;2022-10-30T08:17:28;21.30;59.10
31379;DHT22;61664;48.112;11.662;2022-10-30T08:19:55;21.50;58.30
31379;DHT22;61664;48.112;11.662;2022-10-30T08:22:23;21.70;57.70
31379;DHT22;61664;48.112;11.662;2022-10-30T08:24:50;22.00;57.40
31379;DHT22;61664;48.112;11.662;2022-10-30T08:27:17;22.20;57.00
31379;DHT22;61664;48.112;11.662;2022-10-30T08:29:44;22.50;56.50
31379;DHT22;61664;48.112;11.662;2022-10-30T08:32:11;22.80;56.00
31379;DHT22;61664;48.112;11.662;2022-10-30T08:34:37;23.10;55.70
31379;DHT22;61664;48.112;11.662;2022-10-30T08:37:04;23.30;55.40
31379;DHT22;61664;48.112;11.662;2022-10-30T08:39:33;23.60;54.90
31379;DHT22;61664;48.112;11.662;2022-10-30T08:42:00;23.90;54.50
31379;DHT22;61664;48.112;11.662;2022-10-30T08:44:27;24.10;53.80
31379;DHT22;61664;48.112;11.662;2022-10-30T08:46:53;24.30;53.30
31379;DHT22;61664;48.112;11.662;2022-10-30T08:49:20;24.50;53.10
31379;DHT22;61664;48.112;11.662;2022-10-30T08:51:47;24.70;53.10
31379;DHT22;61664;48.112;11.662;2022-10-30T08:54:14;24.90;52.70
31379;DHT22;61664;48.112;11.662;2022-10-30T08:56:40;25.10;52.30
31379;DHT22;61664;48.112;11.662;2022-10-30T08:59:07;25.20;51.50
31379;DHT22;61664;48.112;11.662;2022-10-30T09:01:34;25.40;51.40
31379;DHT22;61664;48.112;11.662;2022-10-30T09:04:02;25.40;51.40
31379;DHT22;61664;48.112;11.662;2022-10-30T09:06:30;25.60;51.30
31379;DHT22;61664;48.112;11.662;2022-10-30T09:08:57;25.80;50.80
31379;DHT22;61664;48.112;11.662;2022-10-30T09:11:24;25.90;50.40
31379;DHT22;61664;48.112;11.662;2022-10-30T09:13:51;26.00;49.80
31379;DHT22;61664;48.112;11.662;2022-10-30T09:16:18;26.10;49.60
31379;DHT22;61664;48.112;11.662;2022-10-30T09:18:44;26.30;49.70
31379;DHT22;61664;48.112;11.662;2022-10-30T09:21:11;26.40;49.70
31379;DHT22;61664;48.112;11.662;2022-10-30T09:23:38;26.60;49.40
31379;DHT22;61664;48.112;11.662;2022-10-30T09:26:05;26.80;49.50
31379;DHT22;61664;48.112;11.662;2022-10-30T09:28:32;27.00;49.20
31379;DHT22;61664;48.112;11.662;2022-10-30T09:31:00;27.20;48.70
31379;DHT22;61664;48.112;11.662;2022-10-30T09:33:27;27.50;48.10
31379;DHT22;61664;48.112;11.662;2022-10-30T09:35:54;27.70;48.10
31379;DHT22;61664;48.112;11.662;2022-10-30T09:38:21;27.90;47.90
31379;DHT22;61664;48.112;11.662;2022-10-30T09:43:48;28.20;47.20
31379;DHT22;61664;48.112;11.662;2022-10-30T09:49:43;28.60;45.30
31379;DHT22;61664;48.112;11.662;2022-10-30T09:52:28;28.80;45.30
31379;DHT22;61664;48.112;11.662;2022-10-30T10:00:55;29.50;43.40
31379;DHT22;61664;48.112;11.662;2022-10-30T10:07:00;29.70;42.20
31379;DHT22;61664;48.112;11.662;2022-10-30T10:09:32;29.90;42.90
31379;DHT22;61664;48.112;11.662;2022-10-30T10:12:30;29.90;44.30
31379;DHT22;61664;48.112;11.662;2022-10-30T10:15:05;29.90;42.40
31379;DHT22;61664;48.112;11.662;2022-10-30T10:17:40;29.80;42.60
31379;DHT22;61664;48.112;11.662;2022-10-30T10:20:16;29.70;42.00
31379;DHT22;61664;48.112;11.662;2022-10-30T10:22:54;29.50;40.80
31379;DHT22;61664;48.112;11.662;2022-10-30T10:25:26;29.30;42.30
31379;DHT22;61664;48.112;11.662;2022-10-30T10:28:07;29.00;42.10
31379;DHT22;61664;48.112;11.662;2022-10-30T10:30:57;28.80;42.30
31379;DHT22;61664;48.112;11.662;2022-10-30T10:33:55;28.60;41.10
31379;DHT22;61664;48.112;11.662;2022-10-30T10:51:24;28.00;43.10
31379;DHT22;61664;48.112;11.662;2022-10-30T10:54:06;27.90;41.10
31379;DHT22;61664;48.112;11.662;2022-10-30T10:56:42;27.80;42.10
31379;DHT22;61664;48.112;11.662;2022-10-30T10:59:19;27.80;42.00
31379;DHT22;61664;48.112;11.662;2022-10-30T11:05:00;27.70;41.80
31379;DHT22;61664;48.112;11.662;2022-10-30T11:07:42;27.70;41.90
31379;DHT22;61664;48.112;11.662;2022-10-30T11:10:14;27.70;41.70
31379;DHT22;61664;48.112;11.662;2022-10-30T11:12:42;27.70;43.50
31379;DHT22;61664;48.112;11.662;2022-10-30T11:15:44;27.70;43.80
31379;DHT22;61664;48.112;11.662;2022-10-30T11:18:26;27.70;42.40
31379;DHT22;61664;48.112;11.662;2022-10-30T11:21:08;27.70;43.60
31379;DHT22;61664;48.112;11.662;2022-10-30T11:23:45;27.70;42.00
31379;DHT22;61664;48.112;11.662;2022-10-30T11:28:49;27.50;41.50
31379;DHT22;61664;48.112;11.662;2022-10-30T11:31:38;27.50;42.90
31379;DHT22;61664;48.112;11.662;2022-10-30T11:36:40;27.30;41.20
31379;DHT22;61664;48.112;11.662;2022-10-30T11:39:13;27.30;42.90
31379;DHT22;61664;48.112;11.662;2022-10-30T11:44:31;27.10;42.50
31379;DHT22;61664;48.112;11.662;2022-10-30T11:47:18;27.00;42.60
31379;DHT22;61664;48.112;11.662;2022-10-30T11:49:59;26.90;43.10
31379;DHT22;61664;48.112;11.662;2022-10-30T11:52:58;26.90;43.40
31379;DHT22;61664;48.112;11.662;2022-10-30T11:55:34;26.90;43.60
31379;DHT22;61664;48.112;11.662;2022-10-30T11:58:06;26.80;43.70
31379;DHT22;61664;48.112;11.662;2022-10-30T12:00:36;26.80;44.10
31379;DHT22;61664;48.112;11.662;2022-10-30T12:03:32;26.90;44.50
31379;DHT22;61664;48.112;11.662;2022-10-30T12:06:28;26.90;42.90
31379;DHT22;61664;48.112;11.662;2022-10-30T12:09:13;27.10;43.20
31379;DHT22;61664;48.112;11.662;2022-10-30T12:11:46;27.00;43.10
31379;DHT22;61664;48.112;11.662;2022-10-30T12:14:21;27.00;44.10
31379;DHT22;61664;48.112;11.662;2022-10-30T12:16:51;27.00;43.50
31379;DHT22;61664;48.112;11.662;2022-10-30T12:19:23;26.90;43.70
31379;DHT22;61664;48.112;11.662;2022-10-30T12:21:52;26.90;43.90
31379;DHT22;61664;48.112;11.662;2022-10-30T12:27:01;26.80;42.60
31379;DHT22;61664;48.112;11.662;2022-10-30T12:30:04;26.70;42.80
31379;DHT22;61664;48.112;11.662;2022-10-30T12:35:26;26.70;43.10
31379;DHT22;61664;48.112;11.662;2022-10-30T12:38:10;26.60;44.00
31379;DHT22;61664;48.112;11.662;2022-10-30T12:40:55;26.60;43.60
31379;DHT22;61664;48.112;11.662;2022-10-30T12:43:28;26.50;42.80
31379;DHT22;61664;48.112;11.662;2022-10-30T12:46:32;26.50;44.10
31379;DHT22;61664;48.112;11.662;2022-10-30T12:49:10;26.60;43.40
31379;DHT22;61664;48.112;11.662;2022-10-30T12:54:32;26.90;44.30
31379;DHT22;61664;48.112;11.662;2022-10-30T12:57:12;27.00;43.20
31379;DHT22;61664;48.112;11.662;2022-10-30T13:05:06;27.10;44.00
31379;DHT22;61664;48.112;11.662;2022-10-30T13:07:47;27.10;42.80
31379;DHT22;61664;48.112;11.662;2022-10-30T13:10:41;27.10;43.40
31379;DHT22;61664;48.112;11.662;2022-10-30T13:13:22;27.00;43.40
31379;DHT22;61664;48.112;11.662;2022-10-30T13:15:57;27.00;42.80
31379;DHT22;61664;48.112;11.662;2022-10-30T13:18:28;27.00;43.40
31379;DHT22;61664;48.112;11.662;2022-10-30T13:24:10;27.00;42.30
31379;DHT22;61664;48.112;11.662;2022-10-30T13:26:43;27.00;42.60
31379;DHT22;61664;48.112;11.662;2022-10-30T13:29:19;27.10;43.90
31379;DHT22;61664;48.112;11.662;2022-10-30T13:31:57;27.10;43.90
31379;DHT22;61664;48.112;11.662;2022-10-30T13:40:54;27.10;42.30
31379;DHT22;61664;48.112;11.662;2022-10-30T13:43:52;27.10;42.80
31379;DHT22;61664;48.112;11.662;2022-10-30T13:47:29;27.10;43.00
31379;DHT22;61664;48.112;11.662;2022-10-30T13:50:50;27.30;43.40
31379;DHT22;61664;48.112;11.662;2022-10-30T13:53:26;27.40;43.60
31379;DHT22;61664;48.112;11.662;2022-10-30T13:55:56;27.50;43.80
31379;DHT22;61664;48.112;11.662;2022-10-30T13:58:34;27.50;43.90
31379;DHT22;61664;48.112;11.662;2022-10-30T14:01:16;27.50;42.80
31379;DHT22;61664;48.112;11.662;2022-10-30T14:15:33;27.70;42.80
31379;DHT22;61664;48.112;11.662;2022-10-30T14:20:41;28.00;42.80
31379;DHT22;61664;48.112;11.662;2022-10-30T14:23:39;28.10;42.60
31379;DHT22;61664;48.112;11.662;2022-10-30T14:26:19;28.20;42.10
31379;DHT22;61664;48.112;11.662;2022-10-30T14:28:47;28.20;41.70
31379;DHT22;61664;48.112;11.662;2022-10-30T14:31:32;28.10;42.50
31379;DHT22;61664;48.112;11.662;2022-10-30T14:34:01;28.00;41.10
31379;DHT22;61664;48.112;11.662;2022-10-30T14:50:32;26.90;41.70
31379;DHT22;61664;48.112;11.662;2022-10-30T14:53:33;26.70;42.00
31379;DHT22;61664;48.112;11.662;2022-10-30T14:56:48;26.50;42.20
31379;DHT22;61664;48.112;11.662;2022-10-30T15:01:52;26.10;43.40
31379;DHT22;61664;48.112;11.662;2022-10-30T15:15:38;25.30;44.20
31379;DHT22;61664;48.112;11.662;2022-10-30T15:18:17;25.20;44.60
31379;DHT22;61664;48.112;11.662;2022-10-30T15:20:50;25.10;44.50
31379;DHT22;61664;48.112;11.662;2022-10-30T15:23:23;25.00;44.90
31379;DHT22;61664;48.112;11.662;2022-10-30T15:26:06;24.90;45.20
31379;DHT22;61664;48.112;11.662;2022-10-30T15:28:42;24.80;45.40
31379;DHT22;61664;48.112;11.662;2022-10-30T15:33:43;24.60;45.80
31379;DHT22;61664;48.112;11.662;2022-10-30T15:36:16;24.50;46.00
31379;DHT22;61664;48.112;11.662;2022-10-30T15:38:43;24.50;46.10
31379;DHT22;61664;48.112;11.662;2022-10-30T15:41:10;24.40;46.30
31379;DHT22;61664;48.112;11.662;2022-10-30T15:43:40;24.20;46.40
31379;DHT22;61664;48.112;11.662;2022-10-30T15:46:09;24.10;46.50
31379;DHT22;61664;48.112;11.662;2022-10-30T15:48:40;24.00;46.60
31379;DHT22;61664;48.112;11.662;2022-10-30T15:51:12;23.90;46.90
31379;DHT22;61664;48.112;11.662;2022-10-30T15:53:43;23.70;47.10
31379;DHT22;61664;48.112;11.662;2022-10-30T15:56:36;23.60;47.20
31379;DHT22;61664;48.112;11.662;2022-10-30T15:59:29;23.50;47.40
31379;DHT22;61664;48.112;11.662;2022-10-30T16:01:59;23.30;47.80
31379;DHT22;61664;48.112;11.662;2022-10-30T16:04:33;23.10;47.80
31379;DHT22;61664;48.112;11.662;2022-10-30T16:07:18;23.00;48.50
31379;DHT22;61664;48.112;11.662;2022-10-30T16:09:57;22.80;48.50
31379;DHT22;61664;48.112;11.662;2022-10-30T16:12:29;22.70;49.10
31379;DHT22;61664;48.112;11.662;2022-10-30T16:15:05;22.50;49.10
31379;DHT22;61664;48.112;11.662;2022-10-30T16:17:33;22.40;49.70
31379;DHT22;61664;48.112;11.662;2022-10-30T16:20:02;22.20;49.60
31379;DHT22;61664;48.112;11.662;2022-10-30T16:22:35;22.10;49.80
31379;DHT22;61664;48.112;11.662;2022-10-30T16:25:08;21.90;50.50
31379;DHT22;61664;48.112;11.662;2022-10-30T16:27:44;21.80;50.40
31379;DHT22;61664;48.112;11.662;2022-10-30T16:30:15;21.60;50.70
31379;DHT22;61664;48.112;11.662;2022-10-30T16:32:50;21.50;50.70
31379;DHT22;61664;48.112;11.662;2022-10-30T16:35:19;21.40;51.50
31379;DHT22;61664;48.112;11.662;2022-10-30T16:37:48;21.20;51.10
31379;DHT22;61664;48.112;11.662;2022-10-30T16:40:26;21.10;51.30
31379;DHT22;61664;48.112;11.662;2022-10-30T16:42:59;21.00;52.20
31379;DHT22;61664;48.112;11.662;2022-10-30T16:48:17;20.80;52.40
31379;DHT22;61664;48.112;11.662;2022-10-30T16:50:49;20.60;52.90
31379;DHT22;61664;48.112;11.662;2022-10-30T16:53:20;20.60;52.30
31379;DHT22;61664;48.112;11.662;2022-10-30T16:55:50;20.50;52.70
31379;DHT22;61664;48.112;11.662;2022-10-30T16:58:18;20.30;52.90
31379;DHT22;61664;48.112;11.662;2022-10-30T17:00:54;20.30;53.60
31379;DHT22;61664;48.112;11.662;2022-10-30T17:03:36;20.20;53.60
31379;DHT22;61664;48.112;11.662;2022-10-30T17:06:22;20.00;53.70
31379;DHT22;61664;48.112;11.662;2022-10-30T17:08:57;20.00;53.70
31379;DHT22;61664;48.112;11.662;2022-10-30T17:11:39;19.80;53.80
31379;DHT22;61664;48.112;11.662;2022-10-30T17:14:18;19.80;54.70
31379;DHT22;61664;48.112;11.662;2022-10-30T17:18:07;19.70;54.70
31379;DHT22;61664;48.112;11.662;2022-10-30T17:22:39;19.50;54.40
31379;DHT22;61664;48.112;11.662;2022-10-30T17:25:27;19.50;54.50
31379;DHT22;61664;48.112;11.662;2022-10-30T17:27:58;19.40;55.60
31379;DHT22;61664;48.112;11.662;2022-10-30T17:30:33;19.30;54.80
31379;DHT22;61664;48.112;11.662;2022-10-30T17:33:02;19.20;55.50
31379;DHT22;61664;48.112;11.662;2022-10-30T17:35:50;19.10;55.30
31379;DHT22;61664;48.112;11.662;2022-10-30T17:38:18;19.00;55.30
31379;DHT22;61664;48.112;11.662;2022-10-30T17:40:45;19.00;55.60
31379;DHT22;61664;48.112;11.662;2022-10-30T17:43:12;18.90;55.70
31379;DHT22;61664;48.112;11.662;2022-10-30T17:45:41;18.80;55.90
31379;DHT22;61664;48.112;11.662;2022-10-30T17:50:43;18.70;56.40
31379;DHT22;61664;48.112;11.662;2022-10-30T17:53:21;18.70;56.30
31379;DHT22;61664;48.112;11.662;2022-10-30T17:56:41;18.60;57.60
31379;DHT22;61664;48.112;11.662;2022-10-30T17:58:56;18.50;57.40
31379;DHT22;61664;48.112;11.662;2022-10-30T18:01:25;18.50;56.40
31379;DHT22;61664;48.112;11.662;2022-10-30T18:03:54;18.40;56.70
31379;DHT22;61664;48.112;11.662;2022-10-30T18:06:25;18.30;56.90
31379;DHT22;61664;48.112;11.662;2022-10-30T18:08:54;18.30;57.70
31379;DHT22;61664;48.112;11.662;2022-10-30T18:11:23;18.20;57.10
31379;DHT22;61664;48.112;11.662;2022-10-30T18:13:51;18.10;57.40
31379;DHT22;61664;48.112;11.662;2022-10-30T18:16:18;18.10;57.40